createdAt,value
2023-03-15T00:00:53.827Z,100.00
2023-03-15T00:03:20.328Z,100.00
2023-03-15T00:05:48.856Z,100.00
2023-03-15T00:08:15.544Z,100.00
2023-03-15T00:10:42.684Z,100.00
2023-03-15T00:13:09.648Z,100.00
2023-03-15T00:15:36.266Z,100.00
2023-03-15T00:18:03.182Z,100.00
2023-03-15T00:20:30.498Z,100.00
2023-03-15T00:22:56.951Z,100.00
2023-03-15T00:25:23.307Z,100.00
2023-03-15T00:27:49.866Z,100.00
2023-03-15T00:30:16.565Z,100.00
2023-03-15T00:32:42.947Z,100.00
2023-03-15T00:35:12.834Z,100.00
2023-03-15T00:37:39.218Z,100.00
2023-03-15T00:40:07.309Z,100.00
2023-03-15T00:42:33.876Z,100.00
2023-03-15T00:45:00.281Z,100.00
2023-03-15T00:47:26.679Z,100.00
2023-03-15T00:49:53.190Z,100.00
2023-03-15T00:52:19.563Z,100.00
2023-03-15T00:54:55.419Z,100.00
2023-03-15T00:57:22.066Z,100.00
2023-03-15T00:59:48.432Z,100.00
2023-03-15T01:02:14.810Z,100.00
2023-03-15T01:04:41.152Z,100.00
2023-03-15T01:07:07.639Z,100.00
2023-03-15T01:09:34.187Z,100.00
2023-03-15T01:12:00.539Z,100.00
2023-03-15T01:14:26.905Z,100.00
2023-03-15T01:16:53.314Z,100.00
2023-03-15T01:19:19.689Z,100.00
2023-03-15T01:21:47.772Z,100.00
2023-03-15T01:24:14.502Z,100.00
2023-03-15T01:26:40.902Z,100.00
2023-03-15T01:29:07.495Z,100.00
2023-03-15T01:31:34.250Z,100.00
2023-03-15T01:34:01.035Z,100.00
2023-03-15T01:36:27.500Z,100.00
2023-03-15T01:38:55.141Z,100.00
2023-03-15T01:41:21.589Z,100.00
2023-03-15T01:43:48.030Z,100.00
2023-03-15T01:46:23.465Z,100.00
2023-03-15T01:48:57.455Z,100.00
2023-03-15T01:51:41.764Z,100.00
2023-03-15T01:54:15.566Z,100.00
2023-03-15T01:56:45.454Z,100.00
2023-03-15T01:59:15.380Z,100.00
2023-03-15T02:01:45.804Z,100.00
2023-03-15T02:04:15.641Z,100.00
2023-03-15T02:06:46.538Z,100.00
2023-03-15T02:09:14.998Z,100.00
2023-03-15T02:11:41.978Z,100.00
2023-03-15T02:14:08.455Z,100.00
2023-03-15T02:16:34.924Z,100.00
2023-03-15T02:19:01.549Z,100.00
2023-03-15T02:21:40.203Z,100.00
2023-03-15T02:24:13.451Z,100.00
2023-03-15T02:26:45.619Z,100.00
2023-03-15T02:29:12.064Z,100.00
2023-03-15T02:31:38.588Z,100.00
2023-03-15T02:34:06.735Z,100.00
2023-03-15T02:36:33.379Z,100.00
2023-03-15T02:39:00.143Z,100.00
2023-03-15T02:41:29.554Z,100.00
2023-03-15T02:44:00.454Z,100.00
2023-03-15T02:46:27.088Z,100.00
2023-03-15T02:48:54.164Z,100.00
2023-03-15T02:51:22.654Z,100.00
2023-03-15T02:53:49.336Z,100.00
2023-03-15T02:56:16.108Z,100.00
2023-03-15T02:58:45.628Z,100.00
2023-03-15T03:01:13.643Z,100.00
2023-03-15T03:03:41.310Z,100.00
2023-03-15T03:06:08.108Z,100.00
2023-03-15T03:08:34.657Z,100.00
2023-03-15T03:11:01.059Z,100.00
2023-03-15T03:13:27.413Z,100.00
2023-03-15T03:15:58.775Z,100.00
2023-03-15T03:18:26.390Z,100.00
2023-03-15T03:20:55.552Z,100.00
2023-03-15T03:23:22.081Z,100.00
2023-03-15T03:25:48.422Z,100.00
2023-03-15T03:28:14.775Z,100.00
2023-03-15T03:30:41.347Z,100.00
2023-03-15T03:33:07.693Z,100.00
2023-03-15T03:35:34.123Z,100.00
2023-03-15T03:38:00.818Z,100.00
2023-03-15T03:40:27.173Z,100.00
2023-03-15T03:42:53.522Z,100.00
2023-03-15T03:45:19.924Z,100.00
2023-03-15T03:47:46.340Z,100.00
2023-03-15T03:50:12.701Z,100.00
2023-03-15T03:52:39.137Z,100.00
2023-03-15T03:55:05.925Z,100.00
2023-03-15T03:57:32.277Z,100.00
2023-03-15T03:59:58.838Z,100.00
2023-03-15T04:02:25.413Z,100.00
2023-03-15T04:04:51.819Z,100.00
2023-03-15T04:07:18.334Z,100.00
2023-03-15T04:09:44.699Z,100.00
2023-03-15T04:12:11.257Z,100.00
2023-03-15T04:14:37.662Z,100.00
2023-03-15T04:17:04.110Z,100.00
2023-03-15T04:19:30.888Z,100.00
2023-03-15T04:21:57.444Z,100.00
2023-03-15T04:24:23.805Z,100.00
2023-03-15T04:26:50.208Z,100.00
2023-03-15T04:29:17.002Z,100.00
2023-03-15T04:31:43.552Z,100.00
2023-03-15T04:34:09.922Z,100.00
2023-03-15T04:36:36.517Z,100.00
2023-03-15T04:39:05.313Z,100.00
2023-03-15T04:41:32.096Z,100.00
2023-03-15T04:43:58.675Z,100.00
2023-03-15T04:46:25.209Z,100.00
2023-03-15T04:48:51.626Z,100.00
2023-03-15T04:51:18.052Z,100.00
2023-03-15T04:53:44.413Z,100.00
2023-03-15T04:56:10.798Z,100.00
2023-03-15T04:58:37.139Z,100.00
2023-03-15T05:01:03.652Z,100.00
2023-03-15T05:03:30.035Z,100.00
2023-03-15T05:05:56.620Z,100.00
2023-03-15T05:08:22.963Z,100.00
2023-03-15T05:10:49.364Z,95.29
2023-03-15T05:13:15.742Z,89.49
2023-03-15T05:15:42.103Z,85.44
2023-03-15T05:18:08.474Z,79.20
2023-03-15T05:20:34.819Z,74.36
2023-03-15T05:23:01.424Z,71.38
2023-03-15T05:25:27.765Z,66.13
2023-03-15T05:27:55.462Z,63.81
2023-03-15T05:30:21.845Z,61.34
2023-03-15T05:32:48.391Z,58.01
2023-03-15T05:35:14.820Z,56.44
2023-03-15T05:37:42.498Z,53.85
2023-03-15T05:40:09.780Z,52.29
2023-03-15T05:42:36.415Z,49.67
2023-03-15T05:45:03.032Z,49.87
2023-03-15T05:47:29.419Z,48.94
2023-03-15T05:49:55.785Z,48.10
2023-03-15T05:52:22.305Z,45.08
2023-03-15T05:54:49.780Z,40.72
2023-03-15T05:57:16.185Z,31.78
2023-03-15T05:59:42.706Z,27.51
2023-03-15T06:02:09.100Z,25.91
2023-03-15T06:04:36.634Z,24.81
2023-03-15T06:07:03.221Z,24.33
2023-03-15T06:09:29.580Z,20.67
2023-03-15T06:11:55.973Z,19.96
2023-03-15T06:14:22.505Z,20.17
2023-03-15T06:16:48.882Z,19.03
2023-03-15T06:19:15.286Z,19.27
2023-03-15T06:21:41.647Z,19.08
2023-03-15T06:24:08.539Z,19.79
2023-03-15T06:26:34.883Z,20.80
2023-03-15T06:29:01.419Z,22.26
2023-03-15T06:31:27.837Z,23.09
2023-03-15T06:33:54.273Z,22.40
2023-03-15T06:36:20.665Z,24.31
2023-03-15T06:38:47.030Z,25.08
2023-03-15T06:41:15.704Z,24.75
2023-03-15T06:43:42.333Z,25.53
2023-03-15T06:46:08.910Z,27.97
2023-03-15T06:48:35.309Z,30.04
2023-03-15T06:51:01.706Z,30.66
2023-03-15T06:53:28.089Z,29.68
2023-03-15T06:55:54.475Z,30.93
2023-03-15T06:58:20.908Z,31.88
2023-03-15T07:00:49.129Z,32.25
2023-03-15T07:03:15.505Z,39.06
2023-03-15T07:05:42.053Z,39.76
2023-03-15T07:08:08.431Z,40.40
2023-03-15T07:10:34.981Z,39.84
2023-03-15T07:13:01.420Z,40.76
2023-03-15T07:15:28.437Z,41.34
2023-03-15T07:17:54.981Z,39.80
2023-03-15T07:20:21.395Z,38.12
2023-03-15T07:22:47.844Z,37.29
2023-03-15T07:25:14.346Z,40.30
2023-03-15T07:27:41.058Z,38.75
2023-03-15T07:30:09.499Z,42.85
2023-03-15T07:32:36.156Z,45.74
2023-03-15T07:35:02.676Z,46.41
2023-03-15T07:37:29.390Z,46.58
2023-03-15T07:39:55.847Z,47.19
2023-03-15T07:42:22.462Z,48.60
2023-03-15T07:44:48.850Z,50.74
2023-03-15T07:47:15.408Z,54.57
2023-03-15T07:49:41.762Z,58.05
2023-03-15T07:52:08.623Z,59.19
2023-03-15T07:54:35.031Z,60.93
2023-03-15T07:57:01.422Z,72.96
2023-03-15T07:59:28.043Z,84.77
2023-03-15T08:01:54.790Z,85.89
2023-03-15T08:04:21.254Z,84.72
2023-03-15T08:06:47.631Z,85.33
2023-03-15T08:09:14.029Z,98.18
2023-03-15T08:11:41.278Z,100.00
2023-03-15T08:14:08.838Z,100.00
2023-03-15T08:16:35.234Z,100.00
2023-03-15T08:19:01.842Z,100.00
2023-03-15T08:21:28.193Z,100.00
2023-03-15T08:23:54.797Z,100.00
2023-03-15T08:26:21.143Z,100.00
2023-03-15T08:28:47.487Z,100.00
2023-03-15T08:31:14.013Z,100.00
2023-03-15T08:33:40.666Z,100.00
2023-03-15T08:36:07.325Z,100.00
2023-03-15T08:38:33.737Z,100.00
2023-03-15T08:41:00.127Z,100.00
2023-03-15T08:43:26.551Z,100.00
2023-03-15T08:46:00.649Z,100.00
2023-03-15T08:48:27.719Z,100.00
2023-03-15T08:50:54.210Z,100.00
2023-03-15T08:53:20.889Z,100.00
2023-03-15T08:55:48.853Z,100.00
2023-03-15T08:58:15.220Z,100.00
2023-03-15T09:00:41.654Z,100.00
2023-03-15T09:03:08.678Z,100.00
2023-03-15T09:05:35.253Z,100.00
2023-03-15T09:08:01.900Z,100.00
2023-03-15T09:10:28.297Z,100.00
2023-03-15T09:12:54.884Z,100.00
2023-03-15T09:15:21.920Z,100.00
2023-03-15T09:17:51.595Z,100.00
2023-03-15T09:20:19.210Z,100.00
2023-03-15T09:22:56.173Z,100.00
2023-03-15T09:25:22.955Z,100.00
2023-03-15T09:27:49.724Z,100.00
2023-03-15T09:30:16.278Z,100.00
2023-03-15T09:32:44.100Z,100.00
2023-03-15T09:35:13.522Z,100.00
2023-03-15T09:37:40.200Z,100.00
2023-03-15T09:40:08.213Z,100.00
2023-03-15T09:42:38.736Z,100.00
2023-03-15T09:45:10.643Z,100.00
2023-03-15T09:47:46.808Z,100.00
2023-03-15T09:50:21.809Z,100.00
2023-03-15T09:52:50.580Z,100.00
2023-03-15T09:55:19.970Z,100.00
2023-03-15T09:57:55.735Z,100.00
2023-03-15T10:00:37.492Z,100.00
2023-03-15T10:03:07.213Z,100.00
2023-03-15T10:05:48.949Z,100.00
2023-03-15T10:08:17.466Z,100.00
2023-03-15T10:10:56.808Z,100.00
2023-03-15T10:13:42.679Z,100.00
2023-03-15T10:16:37.969Z,100.00
2023-03-15T10:19:13.823Z,100.00
2023-03-15T10:22:00.477Z,100.00
2023-03-15T10:24:45.343Z,100.00
2023-03-15T10:27:28.912Z,100.00
2023-03-15T10:29:56.071Z,100.00
2023-03-15T10:32:25.942Z,100.00
2023-03-15T10:34:53.310Z,100.00
2023-03-15T10:37:19.876Z,100.00
2023-03-15T10:39:46.984Z,100.00
2023-03-15T10:42:40.207Z,100.00
2023-03-15T10:45:33.855Z,100.00
2023-03-15T10:48:01.248Z,100.00
2023-03-15T10:50:30.957Z,100.00
2023-03-15T10:52:58.092Z,100.00
2023-03-15T10:55:44.152Z,100.00
2023-03-15T10:58:31.304Z,100.00
2023-03-15T11:01:03.384Z,100.00
2023-03-15T11:03:30.110Z,100.00
2023-03-15T11:05:57.887Z,100.00
2023-03-15T11:08:45.611Z,100.00
2023-03-15T11:11:12.020Z,100.00
2023-03-15T11:13:39.684Z,100.00
2023-03-15T11:16:15.252Z,100.00
2023-03-15T11:18:53.953Z,100.00
2023-03-15T11:21:22.281Z,100.00
2023-03-15T11:23:49.574Z,100.00
2023-03-15T11:26:32.498Z,100.00
2023-03-15T11:29:18.803Z,100.00
2023-03-15T11:31:45.308Z,100.00
2023-03-15T11:35:06.125Z,100.00
2023-03-15T11:37:42.410Z,100.00
2023-03-15T11:40:24.487Z,100.00
2023-03-15T11:43:08.715Z,100.00
2023-03-15T11:45:54.152Z,100.00
2023-03-15T11:48:55.871Z,100.00
2023-03-15T11:51:22.235Z,100.00
2023-03-15T11:54:08.945Z,100.00
2023-03-15T11:56:44.542Z,89.39
2023-03-15T11:59:35.365Z,87.87
2023-03-15T12:02:11.247Z,88.79
2023-03-15T12:04:47.612Z,97.20
2023-03-15T12:07:19.855Z,100.00
2023-03-15T12:09:46.212Z,100.00
2023-03-15T12:12:24.954Z,100.00
2023-03-15T12:15:14.559Z,100.00
2023-03-15T12:17:57.033Z,100.00
2023-03-15T12:20:37.953Z,100.00
2023-03-15T12:23:19.339Z,100.00
2023-03-15T12:25:58.426Z,96.66
2023-03-15T12:28:31.453Z,94.29
2023-03-15T12:30:59.652Z,92.05
2023-03-15T12:33:26.188Z,90.47
2023-03-15T12:35:52.642Z,90.07
2023-03-15T12:38:20.677Z,92.44
2023-03-15T12:40:56.701Z,89.58
2023-03-15T12:43:41.609Z,86.67
2023-03-15T12:46:08.111Z,83.49
2023-03-15T12:48:34.630Z,85.30
2023-03-15T12:51:02.267Z,86.61
2023-03-15T12:53:31.585Z,87.48
2023-03-15T12:56:08.032Z,89.27
2023-03-15T12:58:36.263Z,90.31
2023-03-15T13:01:05.283Z,90.56
2023-03-15T13:03:34.655Z,87.70
2023-03-15T13:06:22.664Z,85.34
2023-03-15T13:09:11.638Z,84.36
2023-03-15T13:12:04.046Z,85.05
2023-03-15T13:14:41.549Z,99.34
2023-03-15T13:17:26.969Z,100.00
2023-03-15T13:20:11.098Z,100.00
2023-03-15T13:22:55.428Z,100.00
2023-03-15T13:25:54.864Z,100.00
2023-03-15T13:28:28.090Z,100.00
2023-03-15T13:30:55.452Z,100.00
2023-03-15T13:33:31.700Z,100.00
2023-03-15T13:36:03.684Z,100.00
2023-03-15T13:38:30.738Z,100.00
2023-03-15T13:40:58.403Z,100.00
2023-03-15T13:43:26.565Z,100.00
2023-03-15T13:45:54.773Z,100.00
2023-03-15T13:48:21.159Z,100.00
2023-03-15T13:50:50.560Z,100.00
2023-03-15T13:53:35.649Z,100.00
2023-03-15T13:56:09.985Z,100.00
2023-03-15T13:58:37.375Z,100.00
2023-03-15T14:01:05.684Z,100.00
2023-03-15T14:03:32.052Z,100.00
2023-03-15T14:05:58.741Z,100.00
2023-03-15T14:08:29.853Z,100.00
2023-03-15T14:11:12.278Z,100.00
2023-03-15T14:13:51.693Z,100.00
2023-03-15T14:16:33.822Z,100.00
2023-03-15T14:19:19.045Z,100.00
2023-03-15T14:21:53.238Z,100.00
2023-03-15T14:24:38.815Z,100.00
2023-03-15T14:27:10.191Z,100.00
2023-03-15T14:29:37.675Z,100.00
2023-03-15T14:32:12.298Z,100.00
2023-03-15T14:34:46.268Z,100.00
2023-03-15T14:37:29.936Z,100.00
2023-03-15T14:40:15.246Z,100.00
2023-03-15T14:42:42.921Z,100.00
2023-03-15T14:45:09.466Z,100.00
2023-03-15T14:47:45.436Z,100.00
2023-03-15T14:50:22.283Z,100.00
2023-03-15T14:52:49.519Z,100.00
2023-03-15T14:55:18.282Z,100.00
2023-03-15T14:57:44.909Z,100.00
2023-03-15T15:00:13.750Z,100.00
2023-03-15T15:02:40.181Z,100.00
2023-03-15T15:05:18.223Z,100.00
2023-03-15T15:07:44.755Z,100.00
2023-03-15T15:10:11.453Z,100.00
2023-03-15T15:12:37.848Z,100.00
2023-03-15T15:15:22.893Z,100.00
2023-03-15T15:17:49.830Z,100.00
2023-03-15T15:20:16.414Z,100.00
2023-03-15T15:22:42.920Z,100.00
2023-03-15T15:25:22.564Z,97.99
2023-03-15T15:27:48.981Z,96.16
2023-03-15T15:30:20.541Z,96.07
2023-03-15T15:32:47.039Z,96.64
2023-03-15T15:35:15.419Z,98.51
2023-03-15T15:37:42.514Z,98.48
2023-03-15T15:40:17.499Z,96.04
2023-03-15T15:42:47.114Z,96.53
2023-03-15T15:45:14.902Z,97.48
2023-03-15T15:47:41.297Z,98.36
2023-03-15T15:50:08.578Z,98.90
2023-03-15T15:52:35.695Z,100.00
2023-03-15T15:55:02.359Z,100.00
2023-03-15T15:57:28.777Z,100.00
2023-03-15T15:59:55.210Z,100.00
2023-03-15T16:02:23.542Z,100.00
2023-03-15T16:04:50.456Z,100.00
2023-03-15T16:07:17.071Z,100.00
2023-03-15T16:09:44.330Z,100.00
2023-03-15T16:12:14.612Z,100.00
2023-03-15T16:14:41.738Z,100.00
2023-03-15T16:17:17.214Z,100.00
2023-03-15T16:19:43.681Z,100.00
2023-03-15T16:22:10.038Z,100.00
2023-03-15T16:24:36.924Z,100.00
2023-03-15T16:27:04.979Z,100.00
2023-03-15T16:29:39.170Z,100.00
2023-03-15T16:32:16.827Z,100.00
2023-03-15T16:34:45.638Z,100.00
2023-03-15T16:37:13.560Z,100.00
2023-03-15T16:39:41.634Z,100.00
2023-03-15T16:42:11.510Z,100.00
2023-03-15T16:44:37.891Z,100.00
2023-03-15T16:47:04.372Z,100.00
2023-03-15T16:49:30.723Z,100.00
2023-03-15T16:51:57.146Z,100.00
2023-03-15T16:54:39.945Z,100.00
2023-03-15T16:57:15.948Z,100.00
2023-03-15T16:59:42.353Z,100.00
2023-03-15T17:02:19.818Z,100.00
2023-03-15T17:04:46.588Z,100.00
2023-03-15T17:07:14.437Z,100.00
2023-03-15T17:09:42.292Z,100.00
2023-03-15T17:12:27.480Z,100.00
2023-03-15T17:14:55.191Z,100.00
2023-03-15T17:17:21.581Z,100.00
2023-03-15T17:19:48.237Z,100.00
2023-03-15T17:22:15.927Z,100.00
2023-03-15T17:24:42.485Z,100.00
2023-03-15T17:27:25.359Z,100.00
2023-03-15T17:29:51.766Z,100.00
2023-03-15T17:32:18.210Z,100.00
2023-03-15T17:34:47.150Z,100.00
2023-03-15T17:37:14.733Z,100.00
2023-03-15T17:39:41.772Z,100.00
2023-03-15T17:42:13.254Z,100.00
2023-03-15T17:44:39.685Z,100.00
2023-03-15T17:47:08.479Z,100.00
2023-03-15T17:49:35.776Z,100.00
2023-03-15T17:52:02.917Z,100.00
2023-03-15T17:54:29.327Z,100.00
2023-03-15T17:56:56.923Z,100.00
2023-03-15T17:59:23.476Z,100.00
2023-03-15T18:01:49.952Z,100.00
2023-03-15T18:04:17.018Z,100.00
2023-03-15T18:06:43.478Z,100.00
2023-03-15T18:09:15.269Z,100.00
2023-03-15T18:11:42.525Z,100.00
2023-03-15T18:14:13.548Z,100.00
2023-03-15T18:16:40.314Z,100.00
2023-03-15T18:19:06.858Z,100.00
2023-03-15T18:21:33.225Z,100.00
2023-03-15T18:23:59.621Z,100.00
2023-03-15T18:26:25.969Z,100.00
2023-03-15T18:28:52.390Z,100.00
2023-03-15T18:31:23.259Z,100.00
2023-03-15T18:33:50.055Z,100.00
2023-03-15T18:36:16.804Z,100.00
2023-03-15T18:38:43.294Z,100.00
2023-03-15T18:41:21.008Z,100.00
2023-03-15T18:43:49.527Z,100.00
2023-03-15T18:46:17.763Z,100.00
2023-03-15T18:48:45.321Z,100.00
2023-03-15T18:51:12.611Z,100.00
2023-03-15T18:53:39.378Z,100.00
2023-03-15T18:56:06.135Z,100.00
2023-03-15T18:58:32.624Z,100.00
2023-03-15T19:00:59.091Z,100.00
2023-03-15T19:03:25.554Z,100.00
2023-03-15T19:05:51.921Z,100.00
2023-03-15T19:08:18.331Z,100.00
2023-03-15T19:10:46.857Z,100.00
2023-03-15T19:13:13.199Z,100.00
2023-03-15T19:15:39.699Z,100.00
2023-03-15T19:18:06.433Z,100.00
2023-03-15T19:20:33.809Z,100.00
2023-03-15T19:23:00.205Z,100.00
2023-03-15T19:25:26.582Z,100.00
2023-03-15T19:27:52.930Z,100.00
2023-03-15T19:30:22.022Z,100.00
2023-03-15T19:32:50.350Z,100.00
2023-03-15T19:35:17.669Z,100.00
2023-03-15T19:37:44.494Z,100.00
2023-03-15T19:40:12.379Z,100.00
2023-03-15T19:42:38.859Z,100.00
2023-03-15T19:45:05.985Z,100.00
2023-03-15T19:47:32.406Z,100.00
2023-03-15T19:49:58.791Z,100.00
2023-03-15T19:52:27.132Z,100.00
2023-03-15T19:54:53.504Z,100.00
2023-03-15T19:57:19.856Z,100.00
2023-03-15T19:59:46.417Z,100.00
2023-03-15T20:02:13.208Z,100.00
2023-03-15T20:04:39.689Z,100.00
2023-03-15T20:07:06.147Z,100.00
2023-03-15T20:09:38.735Z,100.00
2023-03-15T20:12:10.158Z,100.00
2023-03-15T20:14:36.541Z,100.00
2023-03-15T20:17:03.416Z,100.00
2023-03-15T20:19:29.893Z,100.00
2023-03-15T20:21:57.756Z,100.00
2023-03-15T20:24:24.375Z,100.00
2023-03-15T20:26:51.739Z,100.00
2023-03-15T20:29:18.328Z,100.00
2023-03-15T20:31:44.771Z,100.00
2023-03-15T20:34:12.056Z,100.00
2023-03-15T20:36:38.402Z,100.00
2023-03-15T20:39:05.494Z,100.00
2023-03-15T20:41:33.166Z,100.00
2023-03-15T20:43:59.794Z,100.00
2023-03-15T20:46:26.265Z,100.00
2023-03-15T20:48:52.689Z,100.00
2023-03-15T20:51:19.098Z,100.00
2023-03-15T20:53:45.530Z,100.00
2023-03-15T20:56:11.907Z,100.00
2023-03-15T20:58:38.361Z,100.00
2023-03-15T21:01:07.847Z,100.00
2023-03-15T21:03:35.241Z,100.00
2023-03-15T21:06:02.562Z,100.00
2023-03-15T21:08:29.024Z,100.00
2023-03-15T21:10:55.501Z,100.00
2023-03-15T21:13:22.117Z,100.00
2023-03-15T21:15:49.356Z,100.00
2023-03-15T21:18:16.703Z,100.00
2023-03-15T21:20:43.110Z,100.00
2023-03-15T21:23:09.560Z,100.00
2023-03-15T21:25:35.923Z,100.00
2023-03-15T21:28:02.571Z,100.00
2023-03-15T21:30:28.976Z,100.00
2023-03-15T21:32:55.457Z,100.00
2023-03-15T21:35:22.279Z,100.00
2023-03-15T21:37:48.728Z,100.00
2023-03-15T21:40:15.133Z,100.00
2023-03-15T21:42:42.635Z,100.00
2023-03-15T21:45:09.893Z,100.00
2023-03-15T21:47:36.806Z,100.00
2023-03-15T21:50:03.238Z,100.00
2023-03-15T21:52:29.683Z,100.00
2023-03-15T21:54:56.048Z,100.00
2023-03-15T21:57:22.423Z,100.00
2023-03-15T21:59:49.412Z,100.00
2023-03-15T22:02:16.623Z,100.00
2023-03-15T22:04:43.626Z,100.00
2023-03-15T22:07:11.020Z,100.00
2023-03-15T22:09:38.032Z,100.00
2023-03-15T22:12:05.354Z,100.00
2023-03-15T22:14:31.697Z,100.00
2023-03-15T22:16:58.134Z,100.00
2023-03-15T22:19:24.966Z,100.00
2023-03-15T22:21:51.357Z,100.00
2023-03-15T22:24:17.688Z,100.00
2023-03-15T22:26:44.141Z,100.00
2023-03-15T22:29:10.924Z,100.00
2023-03-15T22:31:38.113Z,100.00
2023-03-15T22:34:05.405Z,100.00
2023-03-15T22:36:34.671Z,100.00
2023-03-15T22:39:01.456Z,100.00
2023-03-15T22:41:27.920Z,100.00
2023-03-15T22:43:55.119Z,100.00
2023-03-15T22:46:21.530Z,100.00
2023-03-15T22:48:47.911Z,100.00
2023-03-15T22:51:15.176Z,100.00
2023-03-15T22:53:41.900Z,100.00
2023-03-15T22:56:08.274Z,100.00
2023-03-15T22:58:34.950Z,100.00
2023-03-15T23:01:01.473Z,100.00
2023-03-15T23:03:27.986Z,100.00
2023-03-15T23:05:54.958Z,100.00
2023-03-15T23:08:22.689Z,100.00
2023-03-15T23:10:49.057Z,100.00
2023-03-15T23:13:15.599Z,100.00
2023-03-15T23:15:42.145Z,100.00
2023-03-15T23:18:08.680Z,100.00
2023-03-15T23:20:35.361Z,100.00
2023-03-15T23:23:01.723Z,100.00
2023-03-15T23:25:28.811Z,100.00
2023-03-15T23:27:55.394Z,100.00
2023-03-15T23:30:21.898Z,100.00
2023-03-15T23:32:49.092Z,100.00
2023-03-15T23:35:16.109Z,100.00
2023-03-15T23:37:42.871Z,100.00
2023-03-15T23:40:15.160Z,100.00
2023-03-15T23:42:42.984Z,100.00
2023-03-15T23:45:09.996Z,100.00
2023-03-15T23:47:36.362Z,100.00
2023-03-15T23:50:02.722Z,100.00
2023-03-15T23:52:29.463Z,100.00
2023-03-15T23:54:55.817Z,100.00
2023-03-15T23:57:22.299Z,100.00
2023-03-15T23:59:48.696Z,100.00
